CYYT [St Johns Intl]
TAF: TAF CYYT 131739Z 1318/1418 13019G31KT 1/8SM -RA -DZ FG VV001
TEMPO 1318/1401 3SM BR OVC004
FM140100 17025G35KT 1SM SHRA BR OVC003
FM140500 23020G30KT P6SM BKN030 BKN100
FM141200 22024G45KT P6SM FEW040
FM141500 22024G45KT P6SM FEW025